sensor_id;sensor_type;location;lat;lon;timestamp;pressure;altitude;pressure_sealevel;temperature
74533;BMP180;63012;51.096;-115.366;2022-11-21T00:01:27;87133.40;;;-3.20
74533;BMP180;63012;51.096;-115.366;2022-11-21T00:03:54;87115.20;;;-3.22
74533;BMP180;63012;51.096;-115.366;2022-11-21T00:06:21;87121.00;;;-3.20
74533;BMP180;63012;51.096;-115.366;2022-11-21T00:08:49;87116.40;;;-3.28
74533;BMP180;63012;51.096;-115.366;2022-11-21T00:11:16;87114.20;;;-3.30
74533;BMP180;63012;51.096;-115.366;2022-11-21T00:13:43;87114.60;;;-3.30
74533;BMP180;63012;51.096;-115.366;2022-11-21T00:16:14;87130.40;;;-3.30
74533;BMP180;63012;51.096;-115.366;2022-11-21T00:18:41;87123.80;;;-3.30
74533;BMP180;63012;51.096;-115.366;2022-11-21T00:21:16;87114.00;;;-3.32
74533;BMP180;63012;51.096;-115.366;2022-11-21T00:23:45;87114.80;;;-3.38
74533;BMP180;63012;51.096;-115.366;2022-11-21T00:26:14;87122.80;;;-3.40
74533;BMP180;63012;51.096;-115.366;2022-11-21T00:28:41;87129.00;;;-3.40
74533;BMP180;63012;51.096;-115.366;2022-11-21T00:31:18;87117.00;;;-3.40
74533;BMP180;63012;51.096;-115.366;2022-11-21T00:33:45;87111.80;;;-3.40
74533;BMP180;63012;51.096;-115.366;2022-11-21T00:36:12;87118.20;;;-3.40
74533;BMP180;63012;51.096;-115.366;2022-11-21T00:38:39;87121.40;;;-3.44
74533;BMP180;63012;51.096;-115.366;2022-11-21T00:41:06;87126.20;;;-3.46
74533;BMP180;63012;51.096;-115.366;2022-11-21T00:43:33;87122.60;;;-3.50
74533;BMP180;63012;51.096;-115.366;2022-11-21T00:46:00;87128.00;;;-3.50
74533;BMP180;63012;51.096;-115.366;2022-11-21T00:48:29;87119.80;;;-3.50
74533;BMP180;63012;51.096;-115.366;2022-11-21T00:50:57;87120.80;;;-3.42
74533;BMP180;63012;51.096;-115.366;2022-11-21T00:53:25;87127.20;;;-3.40
74533;BMP180;63012;51.096;-115.366;2022-11-21T00:55:52;87123.00;;;-3.40
74533;BMP180;63012;51.096;-115.366;2022-11-21T00:58:19;87114.00;;;-3.40
74533;BMP180;63012;51.096;-115.366;2022-11-21T01:00:47;87115.40;;;-3.50
74533;BMP180;63012;51.096;-115.366;2022-11-21T01:03:13;87105.40;;;-3.50
74533;BMP180;63012;51.096;-115.366;2022-11-21T01:05:41;87113.60;;;-3.60
74533;BMP180;63012;51.096;-115.366;2022-11-21T01:08:08;87122.80;;;-3.60
74533;BMP180;63012;51.096;-115.366;2022-11-21T01:10:35;87119.20;;;-3.60
74533;BMP180;63012;51.096;-115.366;2022-11-21T01:13:02;87110.60;;;-3.66
74533;BMP180;63012;51.096;-115.366;2022-11-21T01:15:29;87114.20;;;-3.60
74533;BMP180;63012;51.096;-115.366;2022-11-21T01:17:56;87107.40;;;-3.60
74533;BMP180;63012;51.096;-115.366;2022-11-21T01:20:23;87121.80;;;-3.60
74533;BMP180;63012;51.096;-115.366;2022-11-21T01:22:51;87115.60;;;-3.60
74533;BMP180;63012;51.096;-115.366;2022-11-21T01:25:18;87102.40;;;-3.56
74533;BMP180;63012;51.096;-115.366;2022-11-21T01:27:45;87111.20;;;-3.50
74533;BMP180;63012;51.096;-115.366;2022-11-21T01:30:13;87117.60;;;-3.50
74533;BMP180;63012;51.096;-115.366;2022-11-21T01:32:40;87116.00;;;-3.40
74533;BMP180;63012;51.096;-115.366;2022-11-21T01:35:08;87118.40;;;-3.40
74533;BMP180;63012;51.096;-115.366;2022-11-21T01:37:34;87120.60;;;-3.40
74533;BMP180;63012;51.096;-115.366;2022-11-21T01:40:02;87112.20;;;-3.40
74533;BMP180;63012;51.096;-115.366;2022-11-21T01:42:28;87120.80;;;-3.30
74533;BMP180;63012;51.096;-115.366;2022-11-21T01:45:53;87106.00;;;-3.30
74533;BMP180;63012;51.096;-115.366;2022-11-21T01:54:40;87116.20;;;-3.30
74533;BMP180;63012;51.096;-115.366;2022-11-21T01:57:25;87107.00;;;-3.38
74533;BMP180;63012;51.096;-115.366;2022-11-21T02:00:11;87102.00;;;-3.40
74533;BMP180;63012;51.096;-115.366;2022-11-21T02:02:48;87105.40;;;-3.40
74533;BMP180;63012;51.096;-115.366;2022-11-21T02:05:22;87107.40;;;-3.40
74533;BMP180;63012;51.096;-115.366;2022-11-21T02:07:55;87107.00;;;-3.42
74533;BMP180;63012;51.096;-115.366;2022-11-21T02:10:24;87106.00;;;-3.42
74533;BMP180;63012;51.096;-115.366;2022-11-21T02:12:57;87118.40;;;-3.40
74533;BMP180;63012;51.096;-115.366;2022-11-21T02:15:27;87111.40;;;-3.40
74533;BMP180;63012;51.096;-115.366;2022-11-21T02:17:54;87111.20;;;-3.40
74533;BMP180;63012;51.096;-115.366;2022-11-21T02:20:24;87105.00;;;-3.30
74533;BMP180;63012;51.096;-115.366;2022-11-21T02:23:11;87113.60;;;-3.30
74533;BMP180;63012;51.096;-115.366;2022-11-21T02:25:42;87105.40;;;-3.30
74533;BMP180;63012;51.096;-115.366;2022-11-21T02:28:17;87118.00;;;-3.30
74533;BMP180;63012;51.096;-115.366;2022-11-21T02:30:45;87111.00;;;-3.40
74533;BMP180;63012;51.096;-115.366;2022-11-21T02:33:13;87115.20;;;-3.40
74533;BMP180;63012;51.096;-115.366;2022-11-21T02:35:42;87115.40;;;-3.42
74533;BMP180;63012;51.096;-115.366;2022-11-21T02:38:26;87121.20;;;-3.40
74533;BMP180;63012;51.096;-115.366;2022-11-21T02:41:18;87127.60;;;-3.36
74533;BMP180;63012;51.096;-115.366;2022-11-21T02:44:11;87124.60;;;-3.32
74533;BMP180;63012;51.096;-115.366;2022-11-21T02:46:50;87131.00;;;-3.40
74533;BMP180;63012;51.096;-115.366;2022-11-21T02:49:48;87133.00;;;-3.40
74533;BMP180;63012;51.096;-115.366;2022-11-21T02:52:16;87133.00;;;-3.50
74533;BMP180;63012;51.096;-115.366;2022-11-21T02:54:43;87130.40;;;-3.50
74533;BMP180;63012;51.096;-115.366;2022-11-21T02:57:10;87129.40;;;-3.48
74533;BMP180;63012;51.096;-115.366;2022-11-21T02:59:37;87132.60;;;-3.48
74533;BMP180;63012;51.096;-115.366;2022-11-21T03:02:04;87135.20;;;-3.42
74533;BMP180;63012;51.096;-115.366;2022-11-21T03:04:31;87135.80;;;-3.50
74533;BMP180;63012;51.096;-115.366;2022-11-21T03:06:58;87127.60;;;-3.50
74533;BMP180;63012;51.096;-115.366;2022-11-21T03:09:25;87139.80;;;-3.50
74533;BMP180;63012;51.096;-115.366;2022-11-21T03:11:51;87134.00;;;-3.52
74533;BMP180;63012;51.096;-115.366;2022-11-21T03:14:18;87116.20;;;-3.60
74533;BMP180;63012;51.096;-115.366;2022-11-21T03:16:45;87125.20;;;-3.60
74533;BMP180;63012;51.096;-115.366;2022-11-21T03:19:12;87122.80;;;-3.60
74533;BMP180;63012;51.096;-115.366;2022-11-21T03:21:39;87112.00;;;-3.60
74533;BMP180;63012;51.096;-115.366;2022-11-21T03:24:07;87106.60;;;-3.60
74533;BMP180;63012;51.096;-115.366;2022-11-21T03:26:34;87106.80;;;-3.60
74533;BMP180;63012;51.096;-115.366;2022-11-21T03:29:01;87106.60;;;-3.70
74533;BMP180;63012;51.096;-115.366;2022-11-21T03:31:28;87076.40;;;-3.70
74533;BMP180;63012;51.096;-115.366;2022-11-21T03:33:55;87112.00;;;-3.76
74533;BMP180;63012;51.096;-115.366;2022-11-21T03:36:22;87123.60;;;-3.80
74533;BMP180;63012;51.096;-115.366;2022-11-21T03:38:49;87121.40;;;-3.80
74533;BMP180;63012;51.096;-115.366;2022-11-21T03:41:16;87113.20;;;-3.76
74533;BMP180;63012;51.096;-115.366;2022-11-21T03:44:01;87121.40;;;-3.80
74533;BMP180;63012;51.096;-115.366;2022-11-21T03:46:31;87120.80;;;-3.80
74533;BMP180;63012;51.096;-115.366;2022-11-21T03:48:59;87119.00;;;-3.70
74533;BMP180;63012;51.096;-115.366;2022-11-21T03:51:26;87117.20;;;-3.70
74533;BMP180;63012;51.096;-115.366;2022-11-21T03:53:53;87098.60;;;-3.78
74533;BMP180;63012;51.096;-115.366;2022-11-21T03:56:21;87115.20;;;-3.80
74533;BMP180;63012;51.096;-115.366;2022-11-21T03:58:48;87114.80;;;-3.80
74533;BMP180;63012;51.096;-115.366;2022-11-21T04:01:16;87116.40;;;-3.90
74533;BMP180;63012;51.096;-115.366;2022-11-21T04:03:44;87114.60;;;-3.90
74533;BMP180;63012;51.096;-115.366;2022-11-21T04:06:13;87099.60;;;-4.00
74533;BMP180;63012;51.096;-115.366;2022-11-21T04:08:41;87130.60;;;-4.00
74533;BMP180;63012;51.096;-115.366;2022-11-21T04:11:08;87142.60;;;-3.90
74533;BMP180;63012;51.096;-115.366;2022-11-21T04:13:35;87127.60;;;-3.90
74533;BMP180;63012;51.096;-115.366;2022-11-21T04:16:02;87132.20;;;-3.90
74533;BMP180;63012;51.096;-115.366;2022-11-21T04:18:30;87134.60;;;-3.90
74533;BMP180;63012;51.096;-115.366;2022-11-21T04:21:03;87150.40;;;-3.90
74533;BMP180;63012;51.096;-115.366;2022-11-21T04:23:30;87151.40;;;-3.90
74533;BMP180;63012;51.096;-115.366;2022-11-21T04:25:57;87145.20;;;-3.90
74533;BMP180;63012;51.096;-115.366;2022-11-21T04:28:24;87159.20;;;-3.94
74533;BMP180;63012;51.096;-115.366;2022-11-21T04:30:51;87160.00;;;-3.92
74533;BMP180;63012;51.096;-115.366;2022-11-21T04:33:19;87162.00;;;-3.96
74533;BMP180;63012;51.096;-115.366;2022-11-21T04:35:46;87147.60;;;-3.94
74533;BMP180;63012;51.096;-115.366;2022-11-21T04:38:14;87145.80;;;-4.00
74533;BMP180;63012;51.096;-115.366;2022-11-21T04:40:43;87161.00;;;-4.00
74533;BMP180;63012;51.096;-115.366;2022-11-21T04:43:10;87159.00;;;-4.00
74533;BMP180;63012;51.096;-115.366;2022-11-21T04:45:40;87165.80;;;-4.04
74533;BMP180;63012;51.096;-115.366;2022-11-21T04:48:10;87172.00;;;-4.10
74533;BMP180;63012;51.096;-115.366;2022-11-21T04:50:37;87170.00;;;-4.10
74533;BMP180;63012;51.096;-115.366;2022-11-21T04:53:04;87164.20;;;-4.18
74533;BMP180;63012;51.096;-115.366;2022-11-21T04:55:32;87181.60;;;-4.18
74533;BMP180;63012;51.096;-115.366;2022-11-21T04:57:59;87184.40;;;-4.12
74533;BMP180;63012;51.096;-115.366;2022-11-21T05:00:27;87188.20;;;-4.14
74533;BMP180;63012;51.096;-115.366;2022-11-21T05:02:54;87170.80;;;-4.20
74533;BMP180;63012;51.096;-115.366;2022-11-21T05:05:20;87175.80;;;-4.20
74533;BMP180;63012;51.096;-115.366;2022-11-21T05:07:47;87177.40;;;-4.30
74533;BMP180;63012;51.096;-115.366;2022-11-21T05:10:15;87194.60;;;-4.30
74533;BMP180;63012;51.096;-115.366;2022-11-21T05:12:42;87190.20;;;-4.40
74533;BMP180;63012;51.096;-115.366;2022-11-21T05:15:27;87197.60;;;-4.40
74533;BMP180;63012;51.096;-115.366;2022-11-21T05:17:57;87212.00;;;-4.30
74533;BMP180;63012;51.096;-115.366;2022-11-21T05:20:24;87202.80;;;-4.30
74533;BMP180;63012;51.096;-115.366;2022-11-21T05:22:51;87189.00;;;-4.34
74533;BMP180;63012;51.096;-115.366;2022-11-21T05:25:18;87183.80;;;-4.40
74533;BMP180;63012;51.096;-115.366;2022-11-21T05:27:45;87182.40;;;-4.46
74533;BMP180;63012;51.096;-115.366;2022-11-21T05:30:12;87191.20;;;-4.50
74533;BMP180;63012;51.096;-115.366;2022-11-21T05:32:39;87205.20;;;-4.50
74533;BMP180;63012;51.096;-115.366;2022-11-21T05:35:07;87207.20;;;-4.58
74533;BMP180;63012;51.096;-115.366;2022-11-21T05:37:34;87202.20;;;-4.60
74533;BMP180;63012;51.096;-115.366;2022-11-21T05:40:00;87201.80;;;-4.70
74533;BMP180;63012;51.096;-115.366;2022-11-21T05:42:27;87202.40;;;-4.70
74533;BMP180;63012;51.096;-115.366;2022-11-21T05:45:23;87203.20;;;-4.80
74533;BMP180;63012;51.096;-115.366;2022-11-21T05:47:50;87208.80;;;-4.90
74533;BMP180;63012;51.096;-115.366;2022-11-21T05:50:18;87205.00;;;-4.90
74533;BMP180;63012;51.096;-115.366;2022-11-21T05:52:45;87201.60;;;-5.00
74533;BMP180;63012;51.096;-115.366;2022-11-21T05:55:11;87217.00;;;-5.00
74533;BMP180;63012;51.096;-115.366;2022-11-21T05:57:38;87215.40;;;-5.00
74533;BMP180;63012;51.096;-115.366;2022-11-21T06:00:05;87215.40;;;-5.00
74533;BMP180;63012;51.096;-115.366;2022-11-21T06:02:33;87216.80;;;-5.00
74533;BMP180;63012;51.096;-115.366;2022-11-21T06:05:18;87208.20;;;-5.10
74533;BMP180;63012;51.096;-115.366;2022-11-21T06:07:45;87210.60;;;-5.10
74533;BMP180;63012;51.096;-115.366;2022-11-21T06:10:12;87209.60;;;-5.10
74533;BMP180;63012;51.096;-115.366;2022-11-21T06:12:39;87206.20;;;-5.10
74533;BMP180;63012;51.096;-115.366;2022-11-21T06:15:06;87209.20;;;-5.10
74533;BMP180;63012;51.096;-115.366;2022-11-21T06:17:33;87208.00;;;-5.10
74533;BMP180;63012;51.096;-115.366;2022-11-21T06:20:01;87197.20;;;-5.10
74533;BMP180;63012;51.096;-115.366;2022-11-21T06:22:27;87192.00;;;-5.10
74533;BMP180;63012;51.096;-115.366;2022-11-21T06:24:54;87191.40;;;-5.10
74533;BMP180;63012;51.096;-115.366;2022-11-21T06:27:21;87201.80;;;-5.10
74533;BMP180;63012;51.096;-115.366;2022-11-21T06:29:48;87195.40;;;-5.10
74533;BMP180;63012;51.096;-115.366;2022-11-21T06:32:15;87196.40;;;-5.10
74533;BMP180;63012;51.096;-115.366;2022-11-21T06:34:42;87209.40;;;-5.10
74533;BMP180;63012;51.096;-115.366;2022-11-21T06:37:09;87210.40;;;-5.10
74533;BMP180;63012;51.096;-115.366;2022-11-21T06:39:36;87202.40;;;-5.10
74533;BMP180;63012;51.096;-115.366;2022-11-21T06:42:03;87197.20;;;-5.10
74533;BMP180;63012;51.096;-115.366;2022-11-21T06:44:30;87208.60;;;-5.10
74533;BMP180;63012;51.096;-115.366;2022-11-21T06:46:56;87202.80;;;-5.00
74533;BMP180;63012;51.096;-115.366;2022-11-21T06:49:23;87187.80;;;-5.00
74533;BMP180;63012;51.096;-115.366;2022-11-21T06:51:50;87190.00;;;-5.02
74533;BMP180;63012;51.096;-115.366;2022-11-21T06:54:17;87181.20;;;-5.08
74533;BMP180;63012;51.096;-115.366;2022-11-21T06:56:44;87189.00;;;-5.10
74533;BMP180;63012;51.096;-115.366;2022-11-21T06:59:11;87201.20;;;-5.10
74533;BMP180;63012;51.096;-115.366;2022-11-21T07:01:38;87209.60;;;-5.10
74533;BMP180;63012;51.096;-115.366;2022-11-21T07:04:04;87211.40;;;-5.10
74533;BMP180;63012;51.096;-115.366;2022-11-21T07:06:33;87197.40;;;-5.10
74533;BMP180;63012;51.096;-115.366;2022-11-21T07:09:00;87195.00;;;-5.10
74533;BMP180;63012;51.096;-115.366;2022-11-21T07:11:27;87199.40;;;-5.10
74533;BMP180;63012;51.096;-115.366;2022-11-21T07:13:54;87190.00;;;-5.10
74533;BMP180;63012;51.096;-115.366;2022-11-21T07:16:21;87204.80;;;-5.10
74533;BMP180;63012;51.096;-115.366;2022-11-21T07:18:51;87189.60;;;-5.10
74533;BMP180;63012;51.096;-115.366;2022-11-21T07:21:18;87185.80;;;-5.10
74533;BMP180;63012;51.096;-115.366;2022-11-21T07:23:44;87183.80;;;-5.10
74533;BMP180;63012;51.096;-115.366;2022-11-21T07:26:12;87178.40;;;-5.10
74533;BMP180;63012;51.096;-115.366;2022-11-21T07:28:39;87190.60;;;-5.10
74533;BMP180;63012;51.096;-115.366;2022-11-21T07:31:06;87175.40;;;-5.10
74533;BMP180;63012;51.096;-115.366;2022-11-21T07:33:34;87185.80;;;-5.10
74533;BMP180;63012;51.096;-115.366;2022-11-21T07:36:03;87186.80;;;-5.10
74533;BMP180;63012;51.096;-115.366;2022-11-21T07:38:30;87176.80;;;-5.10
74533;BMP180;63012;51.096;-115.366;2022-11-21T07:40:57;87179.40;;;-5.10
74533;BMP180;63012;51.096;-115.366;2022-11-21T07:43:24;87174.60;;;-5.10
74533;BMP180;63012;51.096;-115.366;2022-11-21T07:45:51;87167.60;;;-5.00
74533;BMP180;63012;51.096;-115.366;2022-11-21T07:48:18;87157.40;;;-4.90
74533;BMP180;63012;51.096;-115.366;2022-11-21T07:50:45;87170.40;;;-4.80
74533;BMP180;63012;51.096;-115.366;2022-11-21T07:53:12;87165.40;;;-4.66
74533;BMP180;63012;51.096;-115.366;2022-11-21T07:55:39;87163.60;;;-4.56
74533;BMP180;63012;51.096;-115.366;2022-11-21T07:58:11;87170.40;;;-4.50
74533;BMP180;63012;51.096;-115.366;2022-11-21T08:00:40;87166.80;;;-4.50
74533;BMP180;63012;51.096;-115.366;2022-11-21T08:03:11;87156.00;;;-4.46
74533;BMP180;63012;51.096;-115.366;2022-11-21T08:05:43;87149.40;;;-4.40
74533;BMP180;63012;51.096;-115.366;2022-11-21T08:08:13;87122.00;;;-4.40
74533;BMP180;63012;51.096;-115.366;2022-11-21T08:10:43;87127.40;;;-4.32
74533;BMP180;63012;51.096;-115.366;2022-11-21T08:13:11;87139.40;;;-4.20
74533;BMP180;63012;51.096;-115.366;2022-11-21T08:15:39;87118.40;;;-4.10
74533;BMP180;63012;51.096;-115.366;2022-11-21T08:18:11;87127.00;;;-4.00
74533;BMP180;63012;51.096;-115.366;2022-11-21T08:20:38;87116.60;;;-4.00
74533;BMP180;63012;51.096;-115.366;2022-11-21T08:23:06;87116.80;;;-3.90
74533;BMP180;63012;51.096;-115.366;2022-11-21T08:25:36;87117.00;;;-3.88
74533;BMP180;63012;51.096;-115.366;2022-11-21T08:28:04;87113.40;;;-3.80
74533;BMP180;63012;51.096;-115.366;2022-11-21T08:30:33;87100.00;;;-3.80
74533;BMP180;63012;51.096;-115.366;2022-11-21T08:33:01;87105.60;;;-3.82
74533;BMP180;63012;51.096;-115.366;2022-11-21T08:35:29;87104.80;;;-3.90
74533;BMP180;63012;51.096;-115.366;2022-11-21T08:38:00;87100.80;;;-3.90
74533;BMP180;63012;51.096;-115.366;2022-11-21T08:40:30;87102.20;;;-3.90
74533;BMP180;63012;51.096;-115.366;2022-11-21T08:43:01;87105.20;;;-3.98
74533;BMP180;63012;51.096;-115.366;2022-11-21T08:45:29;87121.60;;;-4.00
74533;BMP180;63012;51.096;-115.366;2022-11-21T08:47:56;87119.60;;;-4.00
74533;BMP180;63012;51.096;-115.366;2022-11-21T08:50:23;87111.20;;;-4.00
74533;BMP180;63012;51.096;-115.366;2022-11-21T08:52:51;87125.40;;;-3.96
74533;BMP180;63012;51.096;-115.366;2022-11-21T08:55:18;87119.20;;;-3.86
74533;BMP180;63012;51.096;-115.366;2022-11-21T08:57:45;87118.00;;;-3.72
74533;BMP180;63012;51.096;-115.366;2022-11-21T09:00:14;87119.00;;;-3.70
74533;BMP180;63012;51.096;-115.366;2022-11-21T09:02:41;87106.00;;;-3.70
74533;BMP180;63012;51.096;-115.366;2022-11-21T09:05:09;87114.20;;;-3.80
74533;BMP180;63012;51.096;-115.366;2022-11-21T09:07:36;87115.80;;;-3.80
74533;BMP180;63012;51.096;-115.366;2022-11-21T09:10:03;87112.80;;;-3.90
74533;BMP180;63012;51.096;-115.366;2022-11-21T09:12:30;87126.80;;;-4.00
74533;BMP180;63012;51.096;-115.366;2022-11-21T09:14:57;87143.40;;;-4.00
74533;BMP180;63012;51.096;-115.366;2022-11-21T09:17:42;87143.60;;;-4.10
74533;BMP180;63012;51.096;-115.366;2022-11-21T09:20:27;87143.20;;;-4.20
74533;BMP180;63012;51.096;-115.366;2022-11-21T09:22:55;87148.80;;;-4.20
74533;BMP180;63012;51.096;-115.366;2022-11-21T09:25:22;87134.40;;;-4.20
74533;BMP180;63012;51.096;-115.366;2022-11-21T09:27:49;87144.40;;;-4.28
74533;BMP180;63012;51.096;-115.366;2022-11-21T09:30:16;87140.80;;;-4.30
74533;BMP180;63012;51.096;-115.366;2022-11-21T09:32:43;87126.80;;;-4.30
74533;BMP180;63012;51.096;-115.366;2022-11-21T09:35:10;87123.40;;;-4.40
74533;BMP180;63012;51.096;-115.366;2022-11-21T09:37:37;87120.60;;;-4.40
74533;BMP180;63012;51.096;-115.366;2022-11-21T09:40:08;87136.80;;;-4.40
74533;BMP180;63012;51.096;-115.366;2022-11-21T09:45:33;87126.60;;;-4.40
74533;BMP180;63012;51.096;-115.366;2022-11-21T09:48:09;87139.40;;;-4.42
74533;BMP180;63012;51.096;-115.366;2022-11-21T09:51:01;87141.40;;;-4.50
74533;BMP180;63012;51.096;-115.366;2022-11-21T09:53:44;87148.60;;;-4.50
74533;BMP180;63012;51.096;-115.366;2022-11-21T09:56:17;87144.40;;;-4.50
74533;BMP180;63012;51.096;-115.366;2022-11-21T10:01:47;87162.60;;;-4.50
74533;BMP180;63012;51.096;-115.366;2022-11-21T10:04:14;87157.20;;;-4.60
74533;BMP180;63012;51.096;-115.366;2022-11-21T10:07:06;87164.00;;;-4.60
74533;BMP180;63012;51.096;-115.366;2022-11-21T10:16:13;87154.80;;;-4.48
74533;BMP180;63012;51.096;-115.366;2022-11-21T10:22:39;87163.00;;;-4.40
74533;BMP180;63012;51.096;-115.366;2022-11-21T10:25:19;87158.80;;;-4.34
74533;BMP180;63012;51.096;-115.366;2022-11-21T10:28:13;87162.80;;;-4.30
74533;BMP180;63012;51.096;-115.366;2022-11-21T10:30:45;87155.00;;;-4.30
74533;BMP180;63012;51.096;-115.366;2022-11-21T10:33:30;87150.00;;;-4.30
74533;BMP180;63012;51.096;-115.366;2022-11-21T10:36:48;87150.20;;;-4.26
74533;BMP180;63012;51.096;-115.366;2022-11-21T10:39:31;87160.20;;;-4.20
74533;BMP180;63012;51.096;-115.366;2022-11-21T10:44:55;87139.00;;;-4.20
74533;BMP180;63012;51.096;-115.366;2022-11-21T10:47:47;87138.00;;;-4.20
74533;BMP180;63012;51.096;-115.366;2022-11-21T10:50:37;87145.00;;;-4.20
74533;BMP180;63012;51.096;-115.366;2022-11-21T10:53:16;87145.20;;;-4.24
74533;BMP180;63012;51.096;-115.366;2022-11-21T10:56:08;87136.80;;;-4.30
74533;BMP180;63012;51.096;-115.366;2022-11-21T10:58:54;87134.60;;;-4.32
74533;BMP180;63012;51.096;-115.366;2022-11-21T11:01:31;87134.00;;;-4.40
74533;BMP180;63012;51.096;-115.366;2022-11-21T11:06:43;87135.00;;;-4.50
74533;BMP180;63012;51.096;-115.366;2022-11-21T11:09:34;87138.00;;;-4.52
74533;BMP180;63012;51.096;-115.366;2022-11-21T11:12:32;87136.40;;;-4.60
74533;BMP180;63012;51.096;-115.366;2022-11-21T11:15:24;87137.00;;;-4.60
74533;BMP180;63012;51.096;-115.366;2022-11-21T11:18:01;87125.20;;;-4.60
74533;BMP180;63012;51.096;-115.366;2022-11-21T11:20:34;87126.40;;;-4.68
74533;BMP180;63012;51.096;-115.366;2022-11-21T11:23:34;87124.00;;;-4.70
74533;BMP180;63012;51.096;-115.366;2022-11-21T11:26:01;87118.00;;;-4.64
74533;BMP180;63012;51.096;-115.366;2022-11-21T11:28:36;87115.00;;;-4.60
74533;BMP180;63012;51.096;-115.366;2022-11-21T11:31:03;87118.20;;;-4.60
74533;BMP180;63012;51.096;-115.366;2022-11-21T11:33:41;87113.40;;;-4.50
74533;BMP180;63012;51.096;-115.366;2022-11-21T11:48:08;87113.80;;;-4.20
74533;BMP180;63012;51.096;-115.366;2022-11-21T11:50:40;87128.20;;;-4.20
74533;BMP180;63012;51.096;-115.366;2022-11-21T11:53:28;87135.40;;;-4.20
74533;BMP180;63012;51.096;-115.366;2022-11-21T11:56:25;87140.00;;;-4.20
74533;BMP180;63012;51.096;-115.366;2022-11-21T12:02:00;87131.00;;;-4.20
74533;BMP180;63012;51.096;-115.366;2022-11-21T12:04:39;87125.00;;;-4.30
74533;BMP180;63012;51.096;-115.366;2022-11-21T12:07:36;87115.20;;;-4.30
74533;BMP180;63012;51.096;-115.366;2022-11-21T12:10:17;87106.00;;;-4.40
74533;BMP180;63012;51.096;-115.366;2022-11-21T12:15:50;87115.00;;;-4.50
74533;BMP180;63012;51.096;-115.366;2022-11-21T12:21:12;87111.60;;;-4.50
74533;BMP180;63012;51.096;-115.366;2022-11-21T12:23:57;87128.60;;;-4.50
74533;BMP180;63012;51.096;-115.366;2022-11-21T12:27:26;87113.40;;;-4.50
74533;BMP180;63012;51.096;-115.366;2022-11-21T12:33:22;87122.20;;;-4.20
74533;BMP180;63012;51.096;-115.366;2022-11-21T12:36:13;87109.80;;;-4.10
74533;BMP180;63012;51.096;-115.366;2022-11-21T12:42:04;87138.20;;;-4.00
74533;BMP180;63012;51.096;-115.366;2022-11-21T12:48:17;87150.80;;;-3.80
74533;BMP180;63012;51.096;-115.366;2022-11-21T12:54:38;87151.60;;;-3.80
74533;BMP180;63012;51.096;-115.366;2022-11-21T12:57:18;87155.20;;;-3.80
74533;BMP180;63012;51.096;-115.366;2022-11-21T13:06:01;87159.60;;;-3.90
74533;BMP180;63012;51.096;-115.366;2022-11-21T13:08:34;87158.00;;;-4.00
74533;BMP180;63012;51.096;-115.366;2022-11-21T13:17:21;87175.80;;;-4.30
74533;BMP180;63012;51.096;-115.366;2022-11-21T13:25:40;87196.00;;;-4.26
74533;BMP180;63012;51.096;-115.366;2022-11-21T13:30:53;87161.20;;;-4.28
74533;BMP180;63012;51.096;-115.366;2022-11-21T13:36:32;87156.80;;;-4.30
74533;BMP180;63012;51.096;-115.366;2022-11-21T13:41:57;87157.80;;;-4.30
74533;BMP180;63012;51.096;-115.366;2022-11-21T13:44:41;87164.80;;;-4.40
74533;BMP180;63012;51.096;-115.366;2022-11-21T13:49:56;87170.20;;;-4.40
74533;BMP180;63012;51.096;-115.366;2022-11-21T13:55:40;87179.20;;;-4.34
74533;BMP180;63012;51.096;-115.366;2022-11-21T13:58:27;87180.00;;;-4.30
74533;BMP180;63012;51.096;-115.366;2022-11-21T14:01:31;87159.20;;;-4.20
74533;BMP180;63012;51.096;-115.366;2022-11-21T14:05:05;87163.00;;;-4.10
74533;BMP180;63012;51.096;-115.366;2022-11-21T14:07:32;87159.00;;;-4.10
74533;BMP180;63012;51.096;-115.366;2022-11-21T14:10:19;87165.00;;;-4.10
74533;BMP180;63012;51.096;-115.366;2022-11-21T14:12:57;87164.00;;;-4.20
74533;BMP180;63012;51.096;-115.366;2022-11-21T14:18:23;87169.80;;;-4.20
74533;BMP180;63012;51.096;-115.366;2022-11-21T14:20:59;87164.20;;;-4.20
74533;BMP180;63012;51.096;-115.366;2022-11-21T14:23:30;87162.60;;;-4.20
74533;BMP180;63012;51.096;-115.366;2022-11-21T14:26:19;87159.80;;;-4.20
74533;BMP180;63012;51.096;-115.366;2022-11-21T14:28:47;87165.80;;;-4.20
74533;BMP180;63012;51.096;-115.366;2022-11-21T14:31:14;87148.60;;;-4.20
74533;BMP180;63012;51.096;-115.366;2022-11-21T14:33:43;87164.60;;;-4.24
74533;BMP180;63012;51.096;-115.366;2022-11-21T14:36:25;87140.20;;;-4.32
74533;BMP180;63012;51.096;-115.366;2022-11-21T14:38:54;87138.80;;;-4.40
74533;BMP180;63012;51.096;-115.366;2022-11-21T14:44:01;87179.00;;;-4.58
74533;BMP180;63012;51.096;-115.366;2022-11-21T14:46:39;87183.60;;;-4.50
74533;BMP180;63012;51.096;-115.366;2022-11-21T14:51:49;87187.00;;;-4.40
74533;BMP180;63012;51.096;-115.366;2022-11-21T14:54:21;87189.00;;;-4.40
74533;BMP180;63012;51.096;-115.366;2022-11-21T14:57:01;87182.20;;;-4.30
74533;BMP180;63012;51.096;-115.366;2022-11-21T14:59:43;87176.00;;;-4.20
74533;BMP180;63012;51.096;-115.366;2022-11-21T15:02:20;87173.00;;;-4.20
74533;BMP180;63012;51.096;-115.366;2022-11-21T15:04:50;87181.60;;;-4.14
74533;BMP180;63012;51.096;-115.366;2022-11-21T15:07:28;87176.20;;;-4.10
74533;BMP180;63012;51.096;-115.366;2022-11-21T15:09:56;87186.00;;;-4.00
74533;BMP180;63012;51.096;-115.366;2022-11-21T15:15:38;87182.80;;;-4.00
74533;BMP180;63012;51.096;-115.366;2022-11-21T15:18:20;87174.00;;;-4.00
74533;BMP180;63012;51.096;-115.366;2022-11-21T15:20:51;87172.60;;;-4.10
74533;BMP180;63012;51.096;-115.366;2022-11-21T15:23:37;87180.80;;;-4.10
74533;BMP180;63012;51.096;-115.366;2022-11-21T15:26:27;87167.80;;;-4.10
74533;BMP180;63012;51.096;-115.366;2022-11-21T15:28:57;87165.00;;;-4.10
74533;BMP180;63012;51.096;-115.366;2022-11-21T15:31:25;87159.60;;;-4.20
74533;BMP180;63012;51.096;-115.366;2022-11-21T15:34:03;87166.80;;;-4.20
74533;BMP180;63012;51.096;-115.366;2022-11-21T15:36:32;87175.00;;;-4.26
74533;BMP180;63012;51.096;-115.366;2022-11-21T15:41:36;87167.80;;;-4.20
74533;BMP180;63012;51.096;-115.366;2022-11-21T15:46:37;87170.80;;;-4.22
74533;BMP180;63012;51.096;-115.366;2022-11-21T15:49:13;87159.00;;;-4.30
74533;BMP180;63012;51.096;-115.366;2022-11-21T15:51:49;87161.40;;;-4.30